Weather at Politiets nasjonale beredskapssenter Heliport

Public forecast

Using degrees Celsius for public forecast. Weather courtesy of forecast.io.

Closest aviation weather report (METAR) to Politiets nasjonale beredskapssenter Heliport

Closest report is Oslo Airport, Gardermoen, 24.7 nm (45.8 km) NNE.

2024/05/26 18:50 (retrieved 18 minutes ago)

ENGM 261850Z 15011KT 120V180 9999 VCTS SCT050CB 23/09 Q1018 TEMPO 15015G25KT 4000 TSRA

Closest aviation forecast (TAF) to Politiets nasjonale beredskapssenter Heliport

Closest forecast is Oslo Airport, Gardermoen, 24.7 nm (45.8 km) NNE.

2024/05/26 18:00 Correction (retrieved 1 hour ago)

TAF COR ENGM 261700Z 2618/2718 16008KT 9999 FEW040TCU TEMPO 2618/2718 SHRA SCT040CB PROB30 2618/2621 16015G28KT 4000 TS PROB30 2702/2708 BKN010